Time;durP1;ratioP1;P1;durP2;ratioP2;P2;SDS_P1;SDS_P2;PMS_P1;PMS_P2;Temp;Humidity;BMP_temperature;BMP_pressure;BME280_temperature;BME280_humidity;BME280_pressure;Samples;Min_cycle;Max_cycle;Signal;HPM_P1;HPM_P2
2021/12/08 00:02:12;;;;;;;45.95;17.77;;;1.80;91.80;;;;;;4986220;28;20845;-61
2021/12/08 00:04:38;;;;;;;48.75;18.55;;;1.80;91.60;;;;;;4985991;28;20034;-61
2021/12/08 00:07:06;;;;;;;41.85;18.73;;;1.80;91.80;;;;;;4985902;28;20042;-61
2021/12/08 00:09:48;;;;;;;49.55;19.08;;;1.70;91.60;;;;;;4985963;28;20034;-61
2021/12/08 00:15:00;;;;;;;50.35;19.13;;;1.70;92.20;;;;;;4984449;28;20045;-61
2021/12/08 00:17:25;;;;;;;52.80;20.90;;;1.70;91.80;;;;;;4982846;28;20072;-61
2021/12/08 00:19:52;;;;;;;44.08;18.88;;;1.70;92.00;;;;;;4985598;28;20073;-61
2021/12/08 00:22:18;;;;;;;45.63;18.30;;;1.70;92.10;;;;;;4985744;28;20034;-61
2021/12/08 00:24:44;;;;;;;49.15;19.55;;;1.60;92.20;;;;;;4985481;28;20097;-61
2021/12/08 00:27:10;;;;;;;50.10;19.30;;;1.60;92.20;;;;;;4983360;28;20105;-61
2021/12/08 00:29:36;;;;;;;44.33;18.05;;;1.70;92.10;;;;;;4985227;28;20157;-61
2021/12/08 00:32:02;;;;;;;51.65;20.27;;;1.80;91.70;;;;;;4985220;28;20038;-60
2021/12/08 00:34:27;;;;;;;53.63;20.17;;;1.90;91.60;;;;;;4985099;28;20039;-61
2021/12/08 00:36:57;;;;;;;52.53;20.05;;;2.00;91.60;;;;;;4985041;28;20030;-61
2021/12/08 00:39:23;;;;;;;46.97;19.65;;;2.00;91.60;;;;;;4985212;28;20042;-60
2021/12/08 00:41:49;;;;;;;48.63;18.95;;;1.80;91.60;;;;;;4985197;28;20029;-61
2021/12/08 00:44:15;;;;;;;43.78;18.70;;;1.80;91.60;;;;;;4984985;28;20046;-60
2021/12/08 00:46:41;;;;;;;55.65;20.65;;;1.80;91.60;;;;;;4984988;28;20026;-60
2021/12/08 00:49:08;;;;;;;50.20;18.67;;;1.70;91.60;;;;;;4985296;28;20595;-60
2021/12/08 00:51:35;;;;;;;50.85;19.90;;;1.80;91.80;;;;;;4983637;28;20118;-60
2021/12/08 00:54:01;;;;;;;46.70;18.40;;;1.60;92.00;;;;;;4983328;28;20073;-60
2021/12/08 00:56:26;;;;;;;41.55;19.17;;;1.60;92.40;;;;;;4985045;28;20510;-60
2021/12/08 00:58:52;;;;;;;53.03;19.42;;;1.60;92.20;;;;;;4984557;28;20129;-61
2021/12/08 01:01:18;;;;;;;45.00;18.80;;;1.60;92.10;;;;;;4984794;28;20041;-60
2021/12/08 01:03:47;;;;;;;45.38;18.23;;;1.70;92.20;;;;;;4984295;28;20034;-60
2021/12/08 01:06:13;;;;;;;51.33;18.25;;;1.80;91.60;;;;;;4969488;28;20043;-61
2021/12/08 01:08:40;;;;;;;48.28;18.63;;;1.80;91.80;;;;;;4984668;28;20038;-61
2021/12/08 01:11:10;;;;;;;52.00;19.20;;;1.90;91.70;;;;;;4983473;28;20073;-61
2021/12/08 01:13:36;;;;;;;52.17;20.15;;;2.00;91.40;;;;;;4983298;28;20030;-61
2021/12/08 01:16:02;;;;;;;48.45;18.98;;;2.00;91.00;;;;;;4984402;28;20042;-61
2021/12/08 01:18:30;;;;;;;39.53;17.65;;;2.00;91.10;;;;;;4984658;28;20027;-61
2021/12/08 01:20:58;;;;;;;46.38;18.17;;;2.00;91.20;;;;;;4984533;28;20030;-61
2021/12/08 01:23:25;;;;;;;44.28;16.77;;;1.80;91.20;;;;;;4984234;28;20510;-61
2021/12/08 01:25:51;;;;;;;49.58;20.25;;;1.90;91.20;;;;;;4983937;28;20041;-60
2021/12/08 01:28:20;;;;;;;45.80;18.17;;;1.80;91.30;;;;;;4984314;28;20038;-61
2021/12/08 01:30:46;;;;;;;43.80;17.88;;;1.80;91.30;;;;;;4984936;28;20536;-61
2021/12/08 01:33:12;;;;;;;44.67;18.52;;;1.90;91.30;;;;;;4985422;28;20065;-61
2021/12/08 01:35:38;;;;;;;51.58;17.98;;;2.00;91.00;;;;;;4984262;28;20026;-61
2021/12/08 01:38:04;;;;;;;48.03;19.52;;;1.80;91.20;;;;;;4984150;28;20037;-61
2021/12/08 01:40:29;;;;;;;49.55;19.35;;;1.70;91.40;;;;;;4984206;28;20069;-60
2021/12/08 01:42:58;;;;;;;43.72;17.63;;;1.70;91.60;;;;;;4984222;28;20091;-61
2021/12/08 01:48:13;;;;;;;48.28;18.13;;;1.70;91.60;;;;;;4982340;28;20128;-61
2021/12/08 01:50:42;;;;;;;45.55;18.90;;;1.60;91.60;;;;;;4983899;28;20040;-61
2021/12/08 01:53:10;;;;;;;44.25;17.38;;;1.50;91.90;;;;;;4983804;28;20129;-61
2021/12/08 01:55:37;;;;;;;49.15;18.40;;;1.30;92.10;;;;;;4983866;28;20045;-61
2021/12/08 01:58:06;;;;;;;46.30;19.73;;;1.40;92.40;;;;;;4984781;28;20110;-66
2021/12/08 02:00:45;;;;;;;49.03;19.23;;;1.40;92.10;;;;;;4983622;28;20042;-61
2021/12/08 02:03:12;;;;;;;50.10;18.48;;;1.50;92.10;;;;;;4983510;28;20142;-61
2021/12/08 02:05:38;;;;;;;47.25;19.63;;;1.30;92.60;;;;;;4983849;28;20045;-61
2021/12/08 02:08:04;;;;;;;45.60;18.85;;;1.40;92.60;;;;;;4982247;28;20042;-61
2021/12/08 02:10:30;;;;;;;49.67;19.25;;;1.40;92.20;;;;;;4983659;28;20151;-60
2021/12/08 02:12:56;;;;;;;47.17;18.08;;;1.40;92.40;;;;;;4983429;28;20093;-61
2021/12/08 02:15:22;;;;;;;49.10;19.48;;;1.50;92.20;;;;;;4983564;28;20046;-61
2021/12/08 02:17:52;;;;;;;48.97;19.80;;;1.60;92.00;;;;;;4983440;28;20065;-60
2021/12/08 02:20:19;;;;;;;46.05;17.92;;;1.70;91.70;;;;;;4981938;28;20038;-60
2021/12/08 02:22:45;;;;;;;46.28;18.33;;;1.70;91.30;;;;;;4984909;28;20034;-61
2021/12/08 02:25:14;;;;;;;49.03;19.20;;;1.80;91.50;;;;;;4987151;28;20042;-60
2021/12/08 02:27:39;;;;;;;43.78;18.35;;;1.80;91.10;;;;;;4986310;28;20418;-61
2021/12/08 02:30:24;;;;;;;46.55;19.00;;;1.80;91.30;;;;;;4987388;28;20038;-61
2021/12/08 02:46:46;;;;;;;43.50;17.60;;;1.50;91.50;;;;;;4987066;28;20045;-61
2021/12/08 02:49:12;;;;;;;43.70;18.70;;;1.40;91.70;;;;;;4987240;28;20052;-60
2021/12/08 02:51:39;;;;;;;42.38;17.92;;;1.50;91.60;;;;;;4987258;28;20777;-60
2021/12/08 02:54:06;;;;;;;42.63;17.20;;;1.40;91.60;;;;;;4986973;28;20038;-60
2021/12/08 02:56:32;;;;;;;43.95;17.13;;;1.40;91.80;;;;;;4986854;28;20097;-60
2021/12/08 02:58:58;;;;;;;44.45;18.60;;;1.50;91.50;;;;;;4986799;28;20467;-61
2021/12/08 03:01:25;;;;;;;41.53;16.35;;;1.50;91.40;;;;;;4986833;28;20457;-61
2021/12/08 03:03:51;;;;;;;43.45;17.75;;;1.50;91.40;;;;;;4986424;28;20104;-61
2021/12/08 03:06:18;;;;;;;45.33;17.90;;;1.50;91.30;;;;;;4986823;28;20433;-61
2021/12/08 03:08:44;;;;;;;42.92;18.58;;;1.50;91.50;;;;;;4985302;28;20391;-61
2021/12/08 03:11:10;;;;;;;44.72;18.42;;;1.50;91.50;;;;;;4986997;28;20878;-61
2021/12/08 03:13:41;;;;;;;39.03;17.13;;;1.50;91.50;;;;;;4986583;28;20474;-61
2021/12/08 03:16:10;;;;;;;41.25;16.55;;;1.50;91.50;;;;;;4986932;28;20038;-61
2021/12/08 03:18:41;;;;;;;42.95;16.98;;;1.60;91.30;;;;;;4986737;28;20408;-61
2021/12/08 03:21:10;;;;;;;40.25;17.35;;;1.60;91.20;;;;;;4986202;28;20082;-61
2021/12/08 03:24:09;;;;;;;43.10;16.63;;;1.50;91.30;;;;;;4986138;28;20038;-61
2021/12/08 03:26:44;;;;;;;42.78;17.42;;;1.50;91.40;;;;;;4984613;28;20041;-60
2021/12/08 03:29:20;;;;;;;44.65;18.30;;;1.30;91.90;;;;;;4984363;28;20062;-61
2021/12/08 03:31:47;;;;;;;41.63;17.58;;;1.30;92.10;;;;;;4988380;28;20035;-61
2021/12/08 03:34:14;;;;;;;40.47;15.65;;;1.20;92.20;;;;;;4989202;28;20035;-60
2021/12/08 03:36:40;;;;;;;43.85;17.17;;;1.20;92.20;;;;;;4984988;28;20473;-61
2021/12/08 03:39:06;;;;;;;43.78;17.38;;;1.20;92.30;;;;;;4986513;28;20030;-61
2021/12/08 03:41:34;;;;;;;49.78;19.30;;;1.20;92.00;;;;;;4986231;28;20479;-61
2021/12/08 03:44:01;;;;;;;41.20;16.17;;;1.30;92.10;;;;;;4982928;28;20069;-61
2021/12/08 03:46:28;;;;;;;41.40;17.38;;;1.30;92.20;;;;;;4989185;28;20038;-60
2021/12/08 03:48:54;;;;;;;45.30;17.92;;;1.30;92.10;;;;;;4984373;28;20038;-60
2021/12/08 03:51:20;;;;;;;48.60;18.65;;;1.30;92.10;;;;;;4985964;28;20034;-61
2021/12/08 03:53:46;;;;;;;42.83;17.70;;;1.30;92.20;;;;;;4985456;28;20411;-61
2021/12/08 03:56:12;;;;;;;43.10;17.30;;;1.20;92.20;;;;;;4985960;28;20030;-61
2021/12/08 03:58:37;;;;;;;39.58;17.30;;;1.20;92.50;;;;;;4985947;28;20124;-60
2021/12/08 04:01:05;;;;;;;47.15;17.33;;;1.20;92.40;;;;;;4985857;28;20124;-61
2021/12/08 04:03:33;;;;;;;45.80;17.55;;;1.20;92.40;;;;;;4984485;28;20558;-61
2021/12/08 04:06:03;;;;;;;39.60;17.05;;;1.40;92.30;;;;;;4985894;28;20042;-61
2021/12/08 04:08:41;;;;;;;44.95;18.15;;;1.30;92.00;;;;;;4985944;28;20749;-61
2021/12/08 04:11:09;;;;;;;40.95;16.77;;;1.30;92.20;;;;;;4983642;28;20030;-61
2021/12/08 04:13:45;;;;;;;42.35;17.55;;;1.30;92.10;;;;;;4985572;28;20082;-61
2021/12/08 04:16:15;;;;;;;42.47;17.70;;;1.30;92.00;;;;;;4985153;28;20026;-61
2021/12/08 04:18:42;;;;;;;39.33;17.17;;;1.40;92.10;;;;;;4984500;28;20045;-61
2021/12/08 04:21:09;;;;;;;41.88;17.92;;;1.40;91.70;;;;;;4968164;28;20033;-61
2021/12/08 04:23:38;;;;;;;38.75;16.42;;;1.50;91.80;;;;;;4985160;28;20064;-61
2021/12/08 04:26:10;;;;;;;36.85;15.73;;;1.50;91.50;;;;;;4983894;28;20082;-61
2021/12/08 04:28:36;;;;;;;41.38;16.77;;;1.50;91.60;;;;;;4983581;28;20042;-61
2021/12/08 04:31:18;;;;;;;43.47;16.85;;;1.50;91.90;;;;;;4985238;28;20034;-61
2021/12/08 04:33:47;;;;;;;41.45;17.20;;;1.60;91.70;;;;;;4983677;28;20034;-61
2021/12/08 04:36:15;;;;;;;38.08;16.05;;;1.60;91.50;;;;;;4985117;28;20026;-61
2021/12/08 04:38:48;;;;;;;39.83;16.05;;;1.60;91.50;;;;;;4985218;28;20035;-61
2021/12/08 04:41:19;;;;;;;40.80;17.88;;;1.60;91.40;;;;;;4983855;28;20686;-61
2021/12/08 04:44:03;;;;;;;40.08;16.42;;;1.60;91.30;;;;;;4985124;28;20034;-61
2021/12/08 04:47:00;;;;;;;37.70;16.48;;;1.70;91.50;;;;;;4983518;28;20041;-61
2021/12/08 05:01:09;;;;;;;38.13;16.10;;;1.60;91.50;;;;;;4983634;28;20124;-61
2021/12/08 05:10:15;;;;;;;34.38;15.38;;;1.30;91.80;;;;;;4974127;28;20065;-61
2021/12/08 05:12:42;;;;;;;40.35;16.35;;;1.20;92.10;;;;;;4982865;28;20212;-61
2021/12/08 05:15:22;;;;;;;33.13;13.63;;;1.30;92.10;;;;;;4984294;28;20056;-61
2021/12/08 05:18:00;;;;;;;40.55;15.18;;;1.30;91.90;;;;;;4983816;28;20048;-61
2021/12/08 05:21:04;;;;;;;35.17;14.43;;;1.30;92.10;;;;;;4982695;28;20044;-61
2021/12/08 05:23:46;;;;;;;33.17;14.98;;;1.40;92.00;;;;;;4981727;28;20034;-62
2021/12/08 05:26:33;;;;;;;38.28;15.57;;;1.40;91.80;;;;;;4984051;28;20127;-62
2021/12/08 05:29:07;;;;;;;32.50;15.15;;;1.50;91.70;;;;;;4981811;28;20081;-61
2021/12/08 05:31:34;;;;;;;34.58;14.55;;;1.50;91.60;;;;;;4982971;28;20057;-61
2021/12/08 05:34:00;;;;;;;34.60;15.57;;;1.50;91.50;;;;;;4984706;28;20761;-61
2021/12/08 05:36:26;;;;;;;36.22;16.00;;;1.50;91.70;;;;;;4987242;28;20042;-61
2021/12/08 05:38:54;;;;;;;34.03;14.65;;;1.40;91.70;;;;;;4982491;28;20129;-61
2021/12/08 05:41:27;;;;;;;36.22;14.85;;;1.40;91.70;;;;;;4984115;28;20038;-61
2021/12/08 05:43:54;;;;;;;34.30;13.80;;;1.50;91.80;;;;;;4982070;28;20553;-61
2021/12/08 05:46:22;;;;;;;35.78;15.20;;;1.30;91.60;;;;;;4983596;28;20065;-61
2021/12/08 05:48:49;;;;;;;33.42;14.57;;;1.40;91.70;;;;;;4983924;28;20034;-61
2021/12/08 05:51:22;;;;;;;35.45;15.25;;;1.40;91.70;;;;;;4984096;28;20100;-61
2021/12/08 05:53:52;;;;;;;34.97;14.60;;;1.30;91.90;;;;;;4983008;28;20049;-61
2021/12/08 05:56:19;;;;;;;37.40;15.10;;;1.30;91.70;;;;;;4981105;28;20045;-61
2021/12/08 05:58:46;;;;;;;34.03;15.13;;;1.40;91.70;;;;;;4983457;28;20027;-61
2021/12/08 06:01:18;;;;;;;32.78;15.10;;;1.50;91.80;;;;;;4983644;28;20121;-61
2021/12/08 06:03:46;;;;;;;32.90;15.02;;;1.50;91.60;;;;;;4981871;28;20041;-61
2021/12/08 06:06:12;;;;;;;33.05;14.60;;;1.40;91.40;;;;;;4981393;28;20209;-61
2021/12/08 06:08:39;;;;;;;38.15;15.85;;;1.50;91.50;;;;;;4984799;28;20034;-61
2021/12/08 06:11:08;;;;;;;35.80;15.63;;;1.40;91.50;;;;;;4984139;28;20061;-61
2021/12/08 06:13:34;;;;;;;37.85;15.13;;;1.30;91.60;;;;;;4981127;28;20085;-61
2021/12/08 06:16:03;;;;;;;34.53;15.80;;;1.30;91.80;;;;;;4983974;28;20037;-61
2021/12/08 06:18:36;;;;;;;34.60;15.43;;;1.40;91.60;;;;;;4983931;28;20030;-61
2021/12/08 06:21:04;;;;;;;34.80;15.48;;;1.40;91.50;;;;;;4986271;28;20683;-61
2021/12/08 06:23:32;;;;;;;34.78;15.93;;;1.30;91.50;;;;;;4983849;28;20062;-61
2021/12/08 06:25:58;;;;;;;34.10;15.60;;;1.30;91.30;;;;;;4984028;28;20414;-61
2021/12/08 06:28:24;;;;;;;35.72;15.70;;;1.30;91.60;;;;;;4983731;28;20201;-61
2021/12/08 06:30:50;;;;;;;34.45;13.63;;;1.30;91.30;;;;;;4983814;28;20077;-61
2021/12/08 06:33:17;;;;;;;32.25;14.90;;;1.30;91.40;;;;;;4983132;28;20038;-61
2021/12/08 06:35:47;;;;;;;35.92;15.20;;;1.20;91.60;;;;;;4983360;28;20038;-61
2021/12/08 06:38:16;;;;;;;34.25;14.63;;;1.20;91.70;;;;;;4981421;28;20030;-61
2021/12/08 06:41:09;;;;;;;33.53;14.63;;;1.20;91.60;;;;;;4985802;28;20117;-61
2021/12/08 06:43:39;;;;;;;32.70;14.77;;;1.30;91.60;;;;;;4982422;28;20125;-61
2021/12/08 06:46:06;;;;;;;35.15;15.38;;;1.40;91.20;;;;;;4983350;28;20030;-61
2021/12/08 06:48:37;;;;;;;32.75;13.82;;;1.40;91.30;;;;;;4985995;28;20050;-61
2021/12/08 06:51:21;;;;;;;33.85;15.05;;;1.30;91.30;;;;;;4983642;28;20026;-61
2021/12/08 06:53:53;;;;;;;33.40;15.15;;;1.20;91.60;;;;;;4979309;28;20042;-61
2021/12/08 06:56:24;;;;;;;33.70;14.82;;;1.30;91.50;;;;;;4983460;28;20541;-61
2021/12/08 06:58:56;;;;;;;38.60;15.18;;;1.30;91.20;;;;;;4983227;28;20026;-61
2021/12/08 07:04:32;;;;;;;29.08;13.90;;;1.30;91.00;;;;;;4983580;28;20031;-61
2021/12/08 07:07:20;;;;;;;36.47;16.17;;;1.40;91.10;;;;;;4982405;28;20042;-61
2021/12/08 07:09:54;;;;;;;32.65;13.75;;;1.40;91.00;;;;;;4985114;28;20135;-62
2021/12/08 07:12:38;;;;;;;33.28;14.18;;;1.40;91.00;;;;;;4986730;28;20049;-61
2021/12/08 07:15:07;;;;;;;34.33;14.77;;;1.40;90.90;;;;;;4984011;28;20045;-61
2021/12/08 07:17:36;;;;;;;36.88;15.70;;;1.40;91.00;;;;;;4984724;28;20541;-61
2021/12/08 07:20:28;;;;;;;31.83;15.05;;;1.40;90.90;;;;;;4986639;28;20121;-61
2021/12/08 07:22:57;;;;;;;34.15;13.82;;;1.50;90.70;;;;;;4986615;28;20030;-61
2021/12/08 07:25:26;;;;;;;33.70;13.52;;;1.50;90.40;;;;;;4986445;28;20046;-61
2021/12/08 07:27:53;;;;;;;33.85;13.80;;;1.50;90.50;;;;;;4986596;28;20038;-61
2021/12/08 07:30:27;;;;;;;37.33;16.08;;;1.40;90.60;;;;;;4985099;28;20129;-61
2021/12/08 07:32:53;;;;;;;37.10;15.93;;;1.50;90.60;;;;;;4985833;28;20030;-61
2021/12/08 07:35:30;;;;;;;34.42;14.27;;;1.50;90.50;;;;;;4985873;28;20045;-61
2021/12/08 07:37:56;;;;;;;;;;;1.50;90.60;;;;;;4987198;28;20033;-61
2021/12/08 07:40:32;;;;;;;;;;;1.40;90.60;;;;;;4986693;28;19924;-61
2021/12/08 07:43:05;;;;;;;36.15;14.85;;;1.30;90.70;;;;;;4985339;28;19917;-61
2021/12/08 07:45:44;;;;;;;37.60;15.52;;;1.30;90.80;;;;;;4983973;28;20049;-61
2021/12/08 07:48:16;;;;;;;37.88;16.17;;;1.20;90.80;;;;;;4983751;28;20060;-61
2021/12/08 07:51:03;;;;;;;39.55;14.98;;;1.20;91.00;;;;;;4979025;28;20054;-61
2021/12/08 07:53:29;;;;;;;38.33;15.05;;;1.30;90.80;;;;;;4982313;28;20121;-61
2021/12/08 07:56:02;;;;;;;36.67;14.95;;;1.20;90.90;;;;;;4984677;28;20422;-61
2021/12/08 07:58:30;;;;;;;34.67;15.00;;;1.20;90.70;;;;;;4983222;28;20142;-61
2021/12/08 08:01:07;;;;;;;41.15;16.02;;;1.20;90.70;;;;;;4987402;28;20026;-61
2021/12/08 08:03:34;;;;;;;48.47;16.98;;;1.10;90.80;;;;;;4985828;28;20045;-61
2021/12/08 08:06:05;;;;;;;35.67;13.98;;;1.20;91.00;;;;;;4986742;28;20177;-61
2021/12/08 08:08:33;;;;;;;36.13;15.05;;;1.20;90.80;;;;;;4974644;28;20027;-61
2021/12/08 08:11:06;;;;;;;41.40;15.15;;;1.10;90.90;;;;;;4985919;28;20046;-61
2021/12/08 08:13:33;;;;;;;36.55;15.38;;;1.20;91.00;;;;;;4985261;28;20096;-61
2021/12/08 08:16:05;;;;;;;41.22;15.15;;;1.20;90.60;;;;;;4986286;28;20041;-61
2021/12/08 08:18:33;;;;;;;43.28;15.75;;;1.10;91.00;;;;;;4986841;28;20742;-61
2021/12/08 08:21:02;;;;;;;41.72;16.92;;;1.20;91.30;;;;;;4997244;28;20068;-61
2021/12/08 08:23:31;;;;;;;53.22;16.55;;;1.20;90.90;;;;;;4981955;28;20121;-61
2021/12/08 08:25:58;;;;;;;47.63;18.00;;;1.30;90.80;;;;;;4985529;28;20038;-61
2021/12/08 08:28:25;;;;;;;44.40;16.02;;;1.30;90.60;;;;;;4985310;28;20042;-61
2021/12/08 08:31:05;;;;;;;48.58;17.25;;;1.40;90.20;;;;;;4988191;28;20038;-61
2021/12/08 08:33:32;;;;;;;48.47;16.48;;;1.30;90.60;;;;;;4984775;28;20041;-61
2021/12/08 08:36:04;;;;;;;45.20;16.27;;;1.40;90.60;;;;;;4988263;28;20133;-61
2021/12/08 08:38:38;;;;;;;44.50;16.27;;;1.50;90.30;;;;;;4982068;28;20035;-61
2021/12/08 08:41:31;;;;;;;37.90;15.85;;;1.50;90.20;;;;;;4985164;28;20045;-61
2021/12/08 08:44:01;;;;;;;46.60;16.35;;;1.30;90.30;;;;;;4981486;28;20798;-61
2021/12/08 08:46:33;;;;;;;42.78;16.20;;;1.30;90.60;;;;;;4983341;28;20049;-61
2021/12/08 08:49:11;;;;;;;50.10;16.65;;;1.20;90.60;;;;;;4985062;28;20034;-61
2021/12/08 08:51:41;;;;;;;48.33;15.65;;;1.30;90.70;;;;;;4986923;28;20562;-61
2021/12/08 08:54:13;;;;;;;45.47;17.70;;;1.40;90.30;;;;;;4983103;28;20088;-61
2021/12/08 08:56:45;;;;;;;44.67;17.88;;;1.40;90.30;;;;;;4984953;28;20026;-61
2021/12/08 08:59:16;;;;;;;50.28;16.30;;;1.40;90.50;;;;;;4985946;28;20124;-61
2021/12/08 09:01:44;;;;;;;48.58;17.08;;;1.50;90.40;;;;;;4982442;28;20541;-60
2021/12/08 09:04:15;;;;;;;52.60;18.13;;;1.60;90.20;;;;;;4976792;28;20038;-61
2021/12/08 09:06:45;;;;;;;51.00;18.55;;;1.60;90.20;;;;;;4983860;28;20034;-61
2021/12/08 09:09:15;;;;;;;53.22;18.05;;;1.50;90.10;;;;;;4986710;28;20030;-61
2021/12/08 09:11:47;;;;;;;50.58;18.38;;;1.60;90.10;;;;;;4984255;28;20034;-63
2021/12/08 09:14:21;;;;;;;44.38;15.95;;;1.70;90.10;;;;;;4978391;28;20043;-62
2021/12/08 09:16:56;;;;;;;43.50;15.40;;;1.70;89.40;;;;;;4983917;28;20134;-62
2021/12/08 09:19:36;;;;;;;45.75;16.80;;;1.70;89.60;;;;;;4978519;28;20152;-62
2021/12/08 09:22:26;;;;;;;56.05;19.45;;;1.60;89.40;;;;;;4976314;28;20098;-62
2021/12/08 09:24:59;;;;;;;46.53;16.05;;;1.70;89.30;;;;;;4978361;28;20050;-62
2021/12/08 09:27:35;;;;;;;49.17;17.65;;;1.60;89.80;;;;;;4976578;28;20042;-62
2021/12/08 09:30:13;;;;;;;44.75;16.13;;;1.60;89.80;;;;;;4978717;28;20038;-62
2021/12/08 09:32:43;;;;;;;52.17;18.27;;;1.60;90.00;;;;;;4980311;28;20030;-62
2021/12/08 09:35:25;;;;;;;44.33;15.73;;;1.60;89.60;;;;;;4983123;28;20537;-62
2021/12/08 09:37:55;;;;;;;48.78;16.85;;;1.60;90.10;;;;;;4983356;28;20030;-61
2021/12/08 09:40:37;;;;;;;46.33;16.48;;;1.70;89.80;;;;;;4982425;28;20085;-60
2021/12/08 09:43:09;;;;;;;41.58;15.65;;;1.80;89.60;;;;;;4980766;28;20053;-63
2021/12/08 09:45:58;;;;;;;39.80;15.23;;;1.80;88.80;;;;;;4982540;28;20042;-67
2021/12/08 09:48:27;;;;;;;45.90;14.98;;;1.90;88.40;;;;;;4980162;28;20045;-62
2021/12/08 09:50:54;;;;;;;42.63;15.55;;;2.00;88.20;;;;;;4986105;28;20079;-61
2021/12/08 09:53:20;;;;;;;40.58;16.15;;;2.00;88.00;;;;;;4977260;28;20041;-62
2021/12/08 09:55:49;;;;;;;49.75;17.02;;;2.00;87.90;;;;;;4964734;28;20026;-62
2021/12/08 09:58:15;;;;;;;45.88;16.10;;;1.90;88.00;;;;;;4982376;28;20042;-61
2021/12/08 10:00:43;;;;;;;49.33;15.25;;;2.00;88.10;;;;;;4980965;28;20788;-61
2021/12/08 10:03:13;;;;;;;46.70;16.80;;;2.00;87.70;;;;;;4966106;28;20035;-61
2021/12/08 10:05:41;;;;;;;48.67;16.60;;;2.00;88.00;;;;;;4980000;28;20027;-61
2021/12/08 10:08:08;;;;;;;43.47;15.05;;;2.10;87.70;;;;;;4981824;28;20050;-61
2021/12/08 10:10:36;;;;;;;45.35;16.38;;;2.00;87.80;;;;;;4979328;28;20049;-61
2021/12/08 10:13:03;;;;;;;42.88;16.90;;;2.10;87.60;;;;;;4977004;28;20034;-61
2021/12/08 10:15:29;;;;;;;36.88;15.23;;;2.10;86.70;;;;;;4981202;28;20592;-61
2021/12/08 10:17:56;;;;;;;47.05;16.63;;;2.10;87.70;;;;;;4980805;28;20034;-62
2021/12/08 10:20:32;;;;;;;42.38;16.15;;;2.20;87.20;;;;;;4982856;28;20034;-62
2021/12/08 10:23:23;;;;;;;42.08;15.52;;;2.20;87.50;;;;;;4989913;28;20091;-62
2021/12/08 10:26:18;;;;;;;42.22;16.08;;;2.50;86.90;;;;;;4981624;28;20030;-62
2021/12/08 10:28:50;;;;;;;44.53;15.27;;;2.60;85.60;;;;;;4974236;28;20086;-62
2021/12/08 10:31:28;;;;;;;38.83;16.23;;;2.60;85.10;;;;;;4983832;28;20549;-61
2021/12/08 10:34:21;;;;;;;42.20;14.85;;;2.50;85.30;;;;;;4982149;28;20045;-61
2021/12/08 10:36:57;;;;;;;46.00;15.50;;;2.40;86.00;;;;;;4981747;28;20050;-61
2021/12/08 10:39:26;;;;;;;;;;;2.40;86.50;;;;;;4982734;28;20477;-62
2021/12/08 10:42:01;;;;;;;36.10;14.45;;;2.50;85.60;;;;;;4984689;28;20004;-62
2021/12/08 10:44:28;;;;;;;40.42;14.57;;;2.40;86.00;;;;;;4984167;28;20525;-62
2021/12/08 10:46:58;;;;;;;46.75;15.45;;;2.40;86.30;;;;;;4985820;28;20038;-61
2021/12/08 10:54:24;;;;;;;42.75;15.18;;;2.60;85.30;;;;;;4986495;28;20057;-61
2021/12/08 10:54:57;;;;;;;38.70;13.75;;;2.70;84.70;;;;;;4985710;28;20049;-62
2021/12/08 10:57:31;;;;;;;39.08;15.25;;;2.80;84.90;;;;;;4986585;28;20143;-62
2021/12/08 11:00:02;;;;;;;43.85;14.95;;;2.90;84.70;;;;;;4983411;28;20034;-62
2021/12/08 11:02:53;;;;;;;42.38;14.75;;;2.80;83.90;;;;;;4987207;28;20431;-62
2021/12/08 11:05:24;;;;;;;41.83;14.63;;;2.90;84.10;;;;;;4983399;28;20052;-61
2021/12/08 11:08:10;;;;;;;39.60;14.93;;;2.90;83.60;;;;;;4984803;28;20040;-61
2021/12/08 11:10:45;;;;;;;36.97;14.20;;;3.00;83.50;;;;;;4983998;28;20038;-61
2021/12/08 11:13:13;;;;;;;37.35;13.55;;;3.00;83.60;;;;;;4988774;28;20034;-61
2021/12/08 11:15:40;;;;;;;38.70;15.43;;;2.90;84.10;;;;;;4988194;28;20080;-62
2021/12/08 11:18:21;;;;;;;38.28;14.38;;;2.90;84.10;;;;;;4984533;28;20106;-65
2021/12/08 11:20:54;;;;;;;37.60;13.93;;;2.90;84.10;;;;;;4986557;28;20038;-61
2021/12/08 11:23:41;;;;;;;41.70;14.85;;;2.80;83.60;;;;;;4983939;28;20855;-61
2021/12/08 11:26:33;;;;;;;35.47;13.80;;;2.80;84.20;;;;;;4984831;28;20061;-62
2021/12/08 11:29:12;;;;;;;37.92;14.23;;;2.90;84.10;;;;;;4986417;28;20097;-62
2021/12/08 11:31:50;;;;;;;37.55;13.57;;;2.90;83.50;;;;;;4985515;28;20038;-62
2021/12/08 11:34:28;;;;;;;34.90;13.85;;;2.80;84.00;;;;;;4981361;28;20133;-61
2021/12/08 11:36:57;;;;;;;34.60;13.30;;;2.70;84.50;;;;;;4985499;28;20073;-61
2021/12/08 11:39:34;;;;;;;35.92;13.30;;;2.80;84.70;;;;;;4983383;28;20046;-62
2021/12/08 11:42:06;;;;;;;37.10;15.57;;;2.80;84.30;;;;;;4984799;28;20030;-61
2021/12/08 11:44:35;;;;;;;39.30;14.77;;;2.80;83.60;;;;;;4984979;28;20065;-62
2021/12/08 11:47:08;;;;;;;35.42;14.13;;;2.90;84.30;;;;;;4984904;28;20777;-62
2021/12/08 11:49:39;;;;;;;34.65;14.25;;;3.00;83.80;;;;;;4985351;28;20138;-62
2021/12/08 11:52:10;;;;;;;36.40;13.82;;;3.10;83.50;;;;;;4984721;28;20037;-62
2021/12/08 11:54:52;;;;;;;35.75;13.88;;;3.30;81.90;;;;;;4985626;28;20038;-62
2021/12/08 11:57:33;;;;;;;39.00;14.07;;;3.20;81.20;;;;;;4984128;28;20042;-63
2021/12/08 12:00:07;;;;;;;40.17;14.40;;;3.20;82.60;;;;;;4977766;28;20025;-62
2021/12/08 12:02:46;;;;;;;30.20;12.68;;;3.30;82.00;;;;;;4983297;28;20077;-62
2021/12/08 12:05:25;;;;;;;36.10;14.23;;;3.30;81.90;;;;;;4985791;28;20172;-62
2021/12/08 12:07:51;;;;;;;32.83;12.20;;;3.30;81.80;;;;;;4983296;28;20030;-62
2021/12/08 12:10:20;;;;;;;39.10;14.00;;;3.30;81.30;;;;;;4987508;28;20073;-62
2021/12/08 12:12:46;;;;;;;41.58;14.18;;;3.50;80.80;;;;;;4984643;28;20042;-62
2021/12/08 12:15:15;;;;;;;36.13;13.75;;;3.60;81.50;;;;;;4985912;28;20054;-62
2021/12/08 12:17:42;;;;;;;34.33;13.55;;;3.60;80.50;;;;;;4985429;28;20526;-63
2021/12/08 12:20:39;;;;;;;36.40;13.75;;;3.40;80.40;;;;;;4984907;28;20057;-63
2021/12/08 12:23:36;;;;;;;32.80;13.20;;;3.40;81.30;;;;;;4985161;28;20087;-63
2021/12/08 12:26:09;;;;;;;;;;;3.30;81.70;;;;;;4985936;28;20042;-61
2021/12/08 12:28:47;;;;;;;32.85;12.45;;;3.10;81.80;;;;;;4984809;28;19922;-62
2021/12/08 12:31:43;;;;;;;32.03;13.88;;;3.00;82.90;;;;;;4983834;28;20034;-61
2021/12/08 12:34:32;;;;;;;33.73;13.47;;;2.90;83.10;;;;;;4981985;28;20045;-61
2021/12/08 12:37:02;;;;;;;35.13;14.07;;;3.00;83.40;;;;;;4981182;28;20273;-62
2021/12/08 12:39:29;;;;;;;35.17;13.70;;;3.10;83.00;;;;;;4985730;28;20030;-61
2021/12/08 12:42:15;;;;;;;34.75;14.00;;;3.10;82.50;;;;;;4983669;28;20049;-61
2021/12/08 12:44:45;;;;;;;28.98;12.40;;;2.90;83.00;;;;;;4982344;28;20069;-61
2021/12/08 12:47:21;;;;;;;34.55;14.35;;;2.80;83.40;;;;;;4984243;28;20070;-61
2021/12/08 12:49:49;;;;;;;;;;;2.80;83.40;;;;;;4986853;28;20072;-61
2021/12/08 12:52:16;;;;;;;32.67;12.75;;;2.70;84.00;;;;;;4985103;28;19917;-61
2021/12/08 12:54:46;;;;;;;31.90;12.52;;;2.80;84.00;;;;;;4983975;28;20499;-61
2021/12/08 12:57:11;;;;;;;34.72;13.30;;;2.80;83.90;;;;;;4984146;28;20038;-61
2021/12/08 12:59:39;;;;;;;30.02;13.63;;;2.80;84.20;;;;;;4984107;28;20026;-61
2021/12/08 13:02:11;;;;;;;36.20;13.23;;;2.90;83.90;;;;;;4982747;28;20029;-61
2021/12/08 13:04:58;;;;;;;34.05;12.52;;;3.10;82.90;;;;;;4983433;28;20050;-62
2021/12/08 13:07:26;;;;;;;35.58;14.13;;;3.20;83.00;;;;;;4982486;28;20109;-62
2021/12/08 13:09:54;;;;;;;36.55;14.30;;;3.30;82.50;;;;;;4983705;28;20074;-62
2021/12/08 13:12:24;;;;;;;29.75;13.52;;;3.30;81.50;;;;;;4983672;28;20414;-62
2021/12/08 13:15:19;;;;;;;35.63;14.38;;;3.30;82.10;;;;;;4983185;28;20145;-61
2021/12/08 13:18:08;;;;;;;35.72;14.18;;;3.50;81.70;;;;;;4983401;28;20030;-62
2021/12/08 13:20:42;;;;;;;34.67;12.95;;;3.40;82.10;;;;;;4982083;28;20057;-62
2021/12/08 13:23:13;;;;;;;35.47;13.68;;;3.50;81.20;;;;;;4982752;28;20034;-62
2021/12/08 13:25:58;;;;;;;35.92;13.13;;;3.60;81.20;;;;;;4981397;28;20062;-61
2021/12/08 13:31:24;;;;;;;38.58;13.25;;;3.60;80.10;;;;;;4983298;28;20045;-62
2021/12/08 13:34:04;;;;;;;35.10;13.30;;;3.50;80.40;;;;;;4984777;28;20387;-64
2021/12/08 13:36:50;;;;;;;35.30;12.98;;;3.50;80.20;;;;;;4982519;28;20423;-61
2021/12/08 13:39:21;;;;;;;31.90;13.00;;;3.50;80.10;;;;;;4980647;28;20910;-61
2021/12/08 13:42:11;;;;;;;32.38;13.48;;;3.40;80.60;;;;;;4983329;28;20117;-61
2021/12/08 13:45:12;;;;;;;41.25;15.43;;;3.30;81.00;;;;;;4982098;28;20040;-63
2021/12/08 13:47:41;;;;;;;34.38;13.88;;;3.30;81.50;;;;;;4977969;28;20142;-61
2021/12/08 13:50:11;;;;;;;36.25;13.55;;;3.20;82.00;;;;;;4982836;28;20038;-63